createdAt,value
2022-11-20T00:01:31.570Z,14.50
2022-11-20T00:05:34.122Z,16.92
2022-11-20T00:09:35.783Z,16.80
2022-11-20T00:13:37.844Z,17.00
2022-11-20T00:17:39.526Z,16.88
2022-11-20T00:21:41.167Z,13.90
2022-11-20T00:25:42.990Z,20.55
2022-11-20T00:29:44.737Z,16.98
2022-11-20T00:33:47.117Z,17.98
2022-11-20T00:37:48.820Z,15.63
2022-11-20T00:41:51.221Z,19.73
2022-11-20T00:46:00.671Z,16.48
2022-11-20T00:50:02.457Z,21.00
2022-11-20T00:54:04.352Z,25.48
2022-11-20T00:58:10.238Z,19.08
2022-11-20T01:02:16.536Z,19.67
2022-11-20T01:06:19.811Z,12.77
2022-11-20T01:10:21.675Z,11.85
2022-11-20T01:14:23.321Z,13.40
2022-11-20T01:18:24.988Z,17.58
2022-11-20T01:22:26.721Z,15.10
2022-11-20T01:26:31.305Z,16.80
2022-11-20T01:30:32.979Z,15.93
2022-11-20T01:34:34.666Z,16.05
2022-11-20T01:38:36.763Z,19.98
2022-11-20T01:42:57.037Z,15.82
2022-11-20T01:47:06.122Z,17.20
2022-11-20T01:51:20.261Z,17.02
2022-11-20T01:55:32.330Z,19.70
2022-11-20T01:59:35.053Z,19.35
2022-11-20T02:03:37.173Z,18.52
2022-11-20T02:07:39.161Z,24.33
2022-11-20T02:11:40.941Z,18.60
2022-11-20T02:15:43.441Z,14.90
2022-11-20T02:19:45.134Z,16.13
2022-11-20T02:24:10.867Z,14.82
2022-11-20T02:28:12.544Z,12.27
2022-11-20T02:32:28.808Z,15.32
2022-11-20T02:36:33.968Z,16.25
2022-11-20T02:40:35.622Z,13.68
2022-11-20T02:44:37.256Z,15.63
2022-11-20T02:48:38.938Z,16.40
2022-11-20T02:52:40.643Z,14.23
2022-11-20T02:56:42.329Z,15.25
2022-11-20T03:00:44.038Z,15.32
2022-11-20T03:04:45.732Z,17.65
2022-11-20T03:08:47.398Z,15.27
2022-11-20T03:12:54.293Z,14.07
2022-11-20T03:16:57.108Z,10.90
2022-11-20T03:21:00.210Z,14.25
2022-11-20T03:25:01.893Z,16.85
2022-11-20T03:29:05.582Z,12.50
2022-11-20T03:33:07.345Z,13.65
2022-11-20T03:37:09.022Z,15.02
2022-11-20T03:41:13.408Z,14.10
2022-11-20T03:45:17.451Z,18.05
2022-11-20T03:49:19.393Z,16.73
2022-11-20T03:53:21.671Z,16.40
2022-11-20T03:57:23.357Z,15.82
2022-11-20T04:01:27.663Z,14.43
2022-11-20T04:05:29.483Z,19.50
2022-11-20T04:09:31.194Z,13.57
2022-11-20T04:13:32.938Z,18.02
2022-11-20T04:17:34.675Z,17.45
2022-11-20T04:21:36.409Z,15.50
2022-11-20T04:25:38.135Z,12.57
2022-11-20T04:29:39.805Z,16.50
2022-11-20T04:33:42.033Z,15.00
2022-11-20T04:37:43.694Z,14.40
2022-11-20T04:41:45.433Z,15.05
2022-11-20T04:45:55.161Z,15.95
2022-11-20T04:49:57.048Z,16.33
2022-11-20T04:53:58.799Z,17.60
2022-11-20T04:58:00.443Z,16.90
2022-11-20T05:02:02.444Z,16.05
2022-11-20T05:06:04.985Z,18.33
2022-11-20T05:10:07.247Z,20.65
2022-11-20T05:14:08.967Z,11.60
2022-11-20T05:18:10.793Z,15.10
2022-11-20T05:22:12.493Z,18.20
2022-11-20T05:26:20.014Z,16.98
2022-11-20T05:30:21.805Z,13.85
2022-11-20T05:34:23.519Z,17.40
2022-11-20T05:38:25.140Z,15.75
2022-11-20T05:42:32.750Z,19.15
2022-11-20T05:46:34.495Z,14.25
2022-11-20T05:50:36.518Z,14.63
2022-11-20T05:54:38.157Z,16.30
2022-11-20T05:58:40.554Z,16.30
2022-11-20T06:02:42.258Z,15.75
2022-11-20T06:06:43.996Z,13.10
2022-11-20T06:10:45.685Z,15.18
2022-11-20T06:14:47.373Z,18.55
2022-11-20T06:18:49.051Z,17.02
2022-11-20T06:22:50.708Z,19.92
2022-11-20T06:26:52.433Z,16.75
2022-11-20T06:30:54.113Z,17.25
2022-11-20T06:34:55.752Z,18.60
2022-11-20T06:38:57.452Z,16.38
2022-11-20T06:42:59.086Z,15.38
2022-11-20T06:47:00.778Z,18.30
2022-11-20T06:51:08.141Z,19.73
2022-11-20T06:55:09.846Z,19.00
2022-11-20T06:59:11.596Z,17.30
2022-11-20T07:03:13.683Z,18.80
2022-11-20T07:07:15.489Z,16.35
2022-11-20T07:11:17.186Z,20.67
2022-11-20T07:15:20.716Z,16.13
2022-11-20T07:19:22.604Z,18.48
2022-11-20T07:23:24.536Z,18.42
2022-11-20T07:27:26.248Z,18.10
2022-11-20T07:31:27.890Z,18.55
2022-11-20T07:35:29.562Z,15.50
2022-11-20T07:39:31.301Z,17.75
2022-11-20T07:43:35.880Z,21.88
2022-11-20T07:47:41.518Z,19.15
2022-11-20T07:51:43.211Z,21.48
2022-11-20T07:55:44.856Z,17.10
2022-11-20T07:59:47.143Z,20.13
2022-11-20T08:03:48.857Z,14.45
2022-11-20T08:07:50.551Z,20.02
2022-11-20T08:12:10.852Z,18.48
2022-11-20T08:16:12.500Z,16.02
2022-11-20T08:20:14.283Z,19.85
2022-11-20T08:24:15.984Z,21.20
2022-11-20T08:28:21.296Z,16.52
2022-11-20T08:32:23.641Z,18.73
2022-11-20T08:36:26.032Z,21.63
2022-11-20T08:40:27.837Z,20.65
2022-11-20T08:44:29.518Z,21.83
2022-11-20T08:48:31.190Z,19.90
2022-11-20T08:52:36.990Z,21.70
2022-11-20T08:56:41.337Z,18.08
2022-11-20T09:00:43.011Z,16.73
2022-11-20T09:04:44.649Z,20.70
2022-11-20T09:08:46.505Z,21.30
2022-11-20T09:12:50.316Z,18.00
2022-11-20T09:16:51.956Z,18.45
2022-11-20T09:20:58.185Z,20.27
2022-11-20T09:24:59.999Z,18.33
2022-11-20T09:29:01.668Z,24.13
2022-11-20T09:33:05.462Z,17.48
2022-11-20T09:37:07.920Z,23.63
2022-11-20T09:41:24.506Z,16.75
2022-11-20T09:45:39.107Z,20.80
2022-11-20T09:49:43.873Z,21.27
2022-11-20T09:54:01.474Z,26.30
2022-11-20T09:58:08.554Z,25.85
2022-11-20T10:02:28.248Z,21.40
2022-11-20T10:06:31.483Z,25.13
2022-11-20T10:10:52.335Z,21.60
2022-11-20T10:15:01.376Z,22.88
2022-11-20T10:19:36.463Z,22.52
2022-11-20T10:23:41.072Z,20.52
2022-11-20T10:28:04.828Z,21.23
2022-11-20T10:32:19.567Z,24.10
2022-11-20T10:36:45.316Z,24.73
2022-11-20T10:40:54.293Z,26.02
2022-11-20T10:45:06.836Z,24.73
2022-11-20T10:49:21.366Z,25.85
2022-11-20T10:53:36.802Z,27.40
2022-11-20T10:57:51.927Z,25.85
2022-11-20T11:01:53.744Z,24.00
2022-11-20T11:06:04.920Z,30.02
2022-11-20T11:10:22.386Z,26.33
2022-11-20T11:14:25.673Z,25.08
2022-11-20T11:18:28.881Z,26.92
2022-11-20T11:22:32.676Z,25.48
2022-11-20T11:26:34.398Z,23.60
2022-11-20T11:30:44.375Z,27.98
2022-11-20T11:34:46.225Z,24.20
2022-11-20T11:38:53.110Z,34.35
2022-11-20T11:43:05.489Z,25.95
2022-11-20T11:47:12.784Z,28.42
2022-11-20T11:51:21.808Z,26.65
2022-11-20T11:55:39.272Z,30.42
2022-11-20T12:00:09.295Z,30.58
2022-11-20T12:04:44.900Z,27.25
2022-11-20T12:09:05.837Z,29.70
2022-11-20T12:13:27.009Z,33.28
2022-11-20T12:17:28.801Z,32.45
2022-11-20T12:21:59.973Z,32.97
2022-11-20T12:26:15.138Z,35.17
2022-11-20T12:30:22.346Z,35.58
2022-11-20T12:34:29.661Z,34.65
2022-11-20T12:38:37.173Z,34.28
2022-11-20T12:43:35.048Z,33.00
2022-11-20T12:47:52.031Z,30.88
2022-11-20T12:51:53.696Z,28.27
2022-11-20T12:56:20.348Z,33.00
2022-11-20T13:00:26.269Z,32.95
2022-11-20T13:04:27.983Z,33.25
2022-11-20T13:08:35.463Z,32.53
2022-11-20T13:12:45.644Z,38.10
2022-11-20T13:16:56.154Z,29.38
2022-11-20T13:20:57.934Z,33.22
2022-11-20T13:24:59.664Z,34.65
2022-11-20T13:29:10.507Z,36.28
2022-11-20T13:33:24.688Z,31.70
2022-11-20T13:37:35.781Z,35.05
2022-11-20T13:41:42.081Z,37.05
2022-11-20T13:45:54.965Z,37.25
2022-11-20T13:50:00.265Z,34.75
2022-11-20T13:54:26.324Z,40.95
2022-11-20T13:58:37.298Z,30.65
2022-11-20T14:02:39.145Z,41.50
2022-11-20T14:06:46.863Z,35.10
2022-11-20T14:10:48.621Z,40.08
2022-11-20T14:14:55.565Z,37.13
2022-11-20T14:18:59.135Z,37.75
2022-11-20T14:23:00.865Z,43.53
2022-11-20T14:27:03.146Z,39.97
2022-11-20T14:31:04.898Z,36.75
2022-11-20T14:35:14.868Z,41.47
2022-11-20T14:39:26.633Z,42.58
2022-11-20T14:43:29.360Z,45.45
2022-11-20T14:47:32.223Z,45.25
2022-11-20T14:51:44.289Z,42.55
2022-11-20T14:56:02.380Z,35.05
2022-11-20T15:00:16.169Z,41.22
2022-11-20T15:04:17.891Z,42.85
2022-11-20T15:08:19.722Z,42.35
2022-11-20T15:12:21.606Z,41.97
2022-11-20T15:16:24.986Z,37.60
2022-11-20T15:20:31.012Z,45.33
2022-11-20T15:24:33.190Z,35.17
2022-11-20T15:28:43.776Z,39.33
2022-11-20T15:32:47.182Z,37.40
2022-11-20T15:36:48.890Z,33.65
2022-11-20T15:40:50.834Z,32.58
2022-11-20T15:44:52.567Z,38.60
2022-11-20T15:48:58.402Z,39.15
2022-11-20T15:53:00.192Z,38.22
2022-11-20T15:57:03.315Z,41.92
2022-11-20T16:01:05.229Z,44.88
2022-11-20T16:05:12.615Z,36.80
2022-11-20T16:09:14.276Z,38.38
2022-11-20T16:13:37.167Z,32.47
2022-11-20T16:17:47.697Z,31.95
2022-11-20T16:21:49.375Z,27.85
2022-11-20T16:25:51.822Z,28.35
2022-11-20T16:29:53.567Z,23.55
2022-11-20T16:34:00.306Z,32.60
2022-11-20T16:38:02.134Z,35.50
2022-11-20T16:42:04.816Z,29.00
2022-11-20T16:46:06.559Z,26.52
2022-11-20T16:50:09.012Z,23.95
2022-11-20T16:54:13.049Z,25.65
2022-11-20T16:58:16.949Z,28.17
2022-11-20T17:02:18.650Z,29.38
2022-11-20T17:06:22.188Z,25.52
2022-11-20T17:10:24.124Z,21.35
2022-11-20T17:14:26.261Z,29.48
2022-11-20T17:18:28.516Z,24.15
2022-11-20T17:22:32.050Z,29.38
2022-11-20T17:26:35.194Z,22.30
2022-11-20T17:30:36.893Z,21.83
2022-11-20T17:34:38.590Z,25.65
2022-11-20T17:38:40.697Z,23.13
2022-11-20T17:42:42.384Z,22.42
2022-11-20T17:46:44.061Z,20.52
2022-11-20T17:50:45.764Z,20.02
2022-11-20T17:54:47.438Z,23.33
2022-11-20T17:58:49.141Z,21.52
2022-11-20T18:02:50.924Z,24.65
2022-11-20T18:06:52.609Z,26.00
2022-11-20T18:10:54.247Z,20.50
2022-11-20T18:14:55.935Z,20.23
2022-11-20T18:18:58.681Z,24.70
2022-11-20T18:23:00.401Z,34.15
2022-11-20T18:27:02.280Z,23.50
2022-11-20T18:31:08.469Z,28.10
2022-11-20T18:35:10.239Z,24.02
2022-11-20T18:39:13.675Z,23.55
2022-11-20T18:43:34.083Z,26.58
2022-11-20T18:47:38.136Z,23.08
2022-11-20T18:51:41.132Z,22.60
2022-11-20T18:55:42.837Z,34.28
2022-11-20T18:59:45.051Z,27.40
2022-11-20T19:03:47.297Z,29.02
2022-11-20T19:07:49.034Z,21.15
2022-11-20T19:11:51.032Z,21.02
2022-11-20T19:15:52.741Z,25.25
2022-11-20T19:19:55.265Z,22.60
2022-11-20T19:23:59.139Z,28.35
2022-11-20T19:28:00.982Z,30.85
2022-11-20T19:32:04.568Z,29.45
2022-11-20T19:36:13.723Z,30.02
2022-11-20T19:40:15.505Z,27.15
2022-11-20T19:44:18.351Z,27.83
2022-11-20T19:48:20.048Z,25.88
2022-11-20T19:52:21.911Z,21.25
2022-11-20T19:56:24.273Z,26.17
2022-11-20T20:00:31.193Z,20.67
2022-11-20T20:04:34.253Z,26.55
2022-11-20T20:08:37.293Z,28.85
2022-11-20T20:12:38.968Z,27.50
2022-11-20T20:16:41.797Z,20.40
2022-11-20T20:20:43.550Z,26.27
2022-11-20T20:24:45.264Z,25.80
2022-11-20T20:28:46.964Z,21.00
2022-11-20T20:32:54.818Z,25.95
2022-11-20T20:36:57.946Z,29.40
2022-11-20T20:40:59.624Z,29.58
2022-11-20T20:45:07.241Z,25.35
2022-11-20T20:49:09.759Z,23.07
2022-11-20T20:53:11.540Z,31.00
2022-11-20T20:57:13.184Z,29.17
2022-11-20T21:01:16.730Z,28.88
2022-11-20T21:05:18.534Z,26.20
2022-11-20T21:09:21.295Z,26.33
2022-11-20T21:13:24.039Z,26.52
2022-11-20T21:17:26.934Z,21.15
2022-11-20T21:21:47.290Z,21.52
2022-11-20T21:25:49.028Z,28.02
2022-11-20T21:29:50.709Z,30.27
2022-11-20T21:33:54.383Z,30.13
2022-11-20T21:37:56.137Z,24.48
2022-11-20T21:41:57.804Z,29.88
2022-11-20T21:46:11.419Z,33.35
2022-11-20T21:50:13.069Z,33.00
2022-11-20T21:54:17.761Z,26.70
2022-11-20T21:58:19.454Z,26.95
2022-11-20T22:02:21.129Z,25.10
2022-11-20T22:06:24.369Z,35.15
2022-11-20T22:10:28.028Z,31.67
2022-11-20T22:14:29.817Z,27.23
2022-11-20T22:18:31.584Z,26.80
2022-11-20T22:22:33.218Z,33.10
2022-11-20T22:26:40.263Z,29.98
2022-11-20T22:30:42.512Z,28.63
2022-11-20T22:34:44.229Z,35.13
2022-11-20T22:38:46.630Z,39.00
2022-11-20T22:42:48.480Z,29.35
2022-11-20T22:46:50.215Z,34.38
2022-11-20T22:50:52.298Z,30.17
2022-11-20T22:54:54.012Z,34.65
2022-11-20T22:58:56.246Z,37.35
2022-11-20T23:02:58.002Z,26.10
2022-11-20T23:06:59.833Z,31.95
2022-11-20T23:11:07.851Z,32.60
2022-11-20T23:15:10.301Z,37.60
2022-11-20T23:19:14.575Z,38.60
2022-11-20T23:23:16.275Z,29.75
2022-11-20T23:27:19.771Z,39.15
2022-11-20T23:31:22.201Z,36.05
2022-11-20T23:35:24.058Z,37.42
2022-11-20T23:39:25.834Z,34.88
2022-11-20T23:43:27.845Z,37.72
2022-11-20T23:47:29.633Z,36.25
2022-11-20T23:51:31.319Z,37.15
2022-11-20T23:55:33.357Z,35.05
2022-11-20T23:59:35.031Z,38.30
